METAR Data
IDs: Format: Raw Decoded Include TAF

Data at: 1148 UTC 22 Jan 2022

METAR for:KBTP (Butler Cnty/Scholter, PA, US)
Text:KBTP 221056Z AUTO 06003KT 10SM CLR M21/M23 A3036 RMK AO2 SLP315 T12061228 FZRANO
Temperature:-20.6°C ( -5°F)
Dewpoint:-22.8°C ( -9°F) [RH = 82%]
Pressure (altimeter):30.36 inches Hg (1028.2 mb) [Sea level pressure: 1031.5 mb]
Winds:from the ENE (60 degrees) at 3 MPH (3 knots; 1.5 m/s)
Visibility:10 or more sm (16+ km)
Ceiling:at least 12,000 feet AGL
Clouds:sky clear below 12,000 feet AGL
QC Flag:automated observation with no human augmentation
Text:KBTP 220956Z AUTO 00000KT 10SM CLR M21/M23 A3037 RMK AO2 SLP317 T12111233 FZRANO
Temperature:-21.1°C ( -6°F)
Dewpoint:-23.3°C (-10°F) [RH = 82%]
Pressure (altimeter):30.37 inches Hg (1028.5 mb) [Sea level pressure: 1031.7 mb]
Winds:calm
Visibility:10 or more sm (16+ km)
Ceiling:at least 12,000 feet AGL
Clouds:sky clear below 12,000 feet AGL
QC Flag:automated observation with no human augmentation